Time;durP1;ratioP1;P1;durP2;ratioP2;P2;SDS_P1;SDS_P2;PMS_P1;PMS_P2;Temp;Humidity;BMP_temperature;BMP_pressure;BME280_temperature;BME280_humidity;BME280_pressure;Samples;Min_cycle;Max_cycle;Signal;HPM_P1;HPM_P2
2023/03/02 00:01:47;;;;;;;0.50;0.30;;;2.60;99.90;;;;;;4939098;29;20461;-75
2023/03/02 00:04:20;;;;;;;1.00;0.83;;;2.60;99.90;;;;;;4938426;29;20443;-75
2023/03/02 00:06:52;;;;;;;1.37;1.27;;;2.60;99.90;;;;;;4938482;29;20482;-76
2023/03/02 00:09:20;;;;;;;0.60;0.30;;;2.50;99.90;;;;;;4939390;29;20473;-74
2023/03/02 00:11:48;;;;;;;1.07;0.60;;;2.50;99.90;;;;;;4939614;29;20504;-75
2023/03/02 00:14:16;;;;;;;1.67;0.70;;;2.50;99.90;;;;;;4941004;29;20459;-77
2023/03/02 00:16:43;;;;;;;1.57;0.90;;;2.50;99.90;;;;;;4941676;29;20871;-77
2023/03/02 00:19:11;;;;;;;1.23;0.93;;;2.50;99.90;;;;;;4943769;29;20482;-76
2023/03/02 00:21:39;;;;;;;4.50;4.13;;;2.50;99.90;;;;;;4945496;29;20475;-75
2023/03/02 00:24:08;;;;;;;1.97;1.60;;;2.50;99.90;;;;;;4945491;29;20456;-73
2023/03/02 00:26:37;;;;;;;3.00;1.50;;;2.50;99.90;;;;;;4947077;29;20488;-74
2023/03/02 00:29:04;;;;;;;0.50;0.20;;;2.50;99.90;;;;;;4946757;29;20468;-74
2023/03/02 00:31:32;;;;;;;3.87;2.70;;;2.50;99.90;;;;;;4938533;29;20861;-76
2023/03/02 00:34:00;;;;;;;0.60;0.30;;;2.50;99.90;;;;;;4937940;29;20755;-76
2023/03/02 00:36:29;;;;;;;0.83;0.77;;;2.50;99.90;;;;;;4938191;29;20547;-74
2023/03/02 00:38:57;;;;;;;1.50;1.40;;;2.40;99.90;;;;;;4938094;29;20491;-75
2023/03/02 00:41:26;;;;;;;1.80;0.73;;;2.40;99.90;;;;;;4938750;29;20464;-76
2023/03/02 00:43:54;;;;;;;1.50;1.40;;;2.40;99.90;;;;;;4951601;29;20455;-74
2023/03/02 00:46:24;;;;;;;2.50;2.30;;;2.30;99.90;;;;;;4958675;29;20484;-74
2023/03/02 00:48:52;;;;;;;0.60;0.50;;;2.30;99.90;;;;;;4958380;29;20467;-75
2023/03/02 00:51:20;;;;;;;0.83;0.50;;;2.30;99.90;;;;;;4944872;29;20573;-77
2023/03/02 00:53:48;;;;;;;14.37;3.17;;;2.30;99.90;;;;;;4938948;29;20819;-74
2023/03/02 00:56:16;;;;;;;3.10;1.23;;;2.20;99.90;;;;;;4937466;29;20945;-75
2023/03/02 00:58:45;;;;;;;4.23;3.73;;;2.20;99.90;;;;;;4938494;29;20548;-75
2023/03/02 05:01:26;;;;;;;0.83;0.70;;;1.80;99.90;;;;;;5564684;23;20492;-73
2023/03/02 05:03:54;;;;;;;1.37;0.70;;;1.70;99.90;;;;;;4952140;29;20445;-73
2023/03/02 05:06:23;;;;;;;1.70;1.13;;;1.60;99.90;;;;;;4952914;29;20493;-73
2023/03/02 05:08:52;;;;;;;4.73;1.93;;;1.60;99.90;;;;;;4951149;29;20470;-73
2023/03/02 05:11:21;;;;;;;2.20;0.33;;;1.60;99.90;;;;;;4952464;29;20483;-73
2023/03/02 05:13:50;;;;;;;0.67;0.67;;;1.60;99.90;;;;;;4939259;29;20445;-74
2023/03/02 05:16:18;;;;;;;2.57;2.47;;;1.60;99.90;;;;;;4938172;29;20444;-76
2023/03/02 05:18:47;;;;;;;1.17;0.87;;;1.60;99.90;;;;;;4937041;29;20452;-75
2023/03/02 05:21:16;;;;;;;0.53;0.27;;;1.60;99.90;;;;;;4936434;29;20484;-75
2023/03/02 05:23:44;;;;;;;1.03;1.03;;;1.60;99.90;;;;;;4950698;29;20965;-75
2023/03/02 05:26:12;;;;;;;0.50;0.30;;;1.60;99.90;;;;;;4934806;29;20504;-74
2023/03/02 05:28:41;;;;;;;0.70;0.37;;;1.60;99.90;;;;;;4935593;29;20534;-75
2023/03/02 05:31:09;;;;;;;3.80;1.33;;;1.60;99.90;;;;;;4930417;29;20524;-75
2023/03/02 05:33:37;;;;;;;0.90;0.70;;;1.50;99.90;;;;;;4935158;29;20987;-75
2023/03/02 05:36:06;;;;;;;2.37;2.27;;;1.50;99.90;;;;;;4935919;29;20448;-75
2023/03/02 05:38:34;;;;;;;1.70;0.87;;;1.50;99.90;;;;;;4935827;29;20448;-75
2023/03/02 05:41:02;;;;;;;1.30;1.20;;;1.50;99.90;;;;;;4931075;29;20566;-75
2023/03/02 05:43:30;;;;;;;0.53;0.30;;;1.50;99.90;;;;;;4935837;29;20455;-76
2023/03/02 05:45:59;;;;;;;3.13;2.60;;;1.50;99.90;;;;;;4935853;29;21005;-75
2023/03/02 05:48:27;;;;;;;3.60;2.53;;;1.50;99.90;;;;;;4937161;29;20541;-75
2023/03/02 05:50:55;;;;;;;0.50;0.10;;;1.50;99.90;;;;;;4939765;29;20513;-75
2023/03/02 05:53:25;;;;;;;0.50;0.20;;;1.50;99.90;;;;;;4939763;28;20467;-76
2023/03/02 05:55:53;;;;;;;0.50;0.10;;;1.50;99.90;;;;;;4943059;28;20505;-76
2023/03/02 05:58:21;;;;;;;0.87;0.87;;;1.50;99.90;;;;;;4933745;29;20448;-75
2023/03/02 06:00:49;;;;;;;1.33;0.87;;;1.50;99.90;;;;;;4930181;29;20485;-76
2023/03/02 06:03:18;;;;;;;1.23;1.23;;;1.50;99.90;;;;;;4918161;29;20431;-75
2023/03/02 06:05:51;;;;;;;0.67;0.60;;;1.50;99.90;;;;;;4917780;29;20458;-75
2023/03/02 06:08:20;;;;;;;1.43;1.33;;;1.50;99.90;;;;;;4917033;29;20505;-75
2023/03/02 06:10:49;;;;;;;5.50;3.80;;;1.50;99.90;;;;;;4918673;29;20535;-76
2023/03/02 06:13:17;;;;;;;2.50;1.20;;;1.40;99.90;;;;;;4916974;29;20464;-77
2023/03/02 06:15:45;;;;;;;1.37;1.27;;;1.40;99.90;;;;;;4916684;29;20457;-75
2023/03/02 06:18:13;;;;;;;2.83;1.43;;;1.40;99.90;;;;;;4916671;29;20446;-75
2023/03/02 06:20:41;;;;;;;1.40;1.30;;;1.50;99.90;;;;;;4916516;29;20793;-76
2023/03/02 06:23:10;;;;;;;0.80;0.43;;;1.50;99.90;;;;;;4937909;29;20451;-76
2023/03/02 06:25:40;;;;;;;2.70;1.43;;;1.40;99.90;;;;;;4920581;28;20458;-74
2023/03/02 06:28:09;;;;;;;3.50;2.20;;;1.40;99.90;;;;;;4917326;29;20493;-76
2023/03/02 06:30:36;;;;;;;1.57;1.40;;;1.50;99.90;;;;;;4927224;29;20998;-77
2023/03/02 06:33:04;;;;;;;0.77;0.77;;;1.50;99.90;;;;;;4936881;29;20486;-75
2023/03/02 06:35:33;;;;;;;2.17;1.93;;;1.50;99.90;;;;;;4935966;29;20442;-77
2023/03/02 06:38:01;;;;;;;7.07;2.30;;;1.50;99.90;;;;;;4936005;29;20459;-76
2023/03/02 06:40:30;;;;;;;2.13;1.27;;;1.50;99.90;;;;;;4936175;29;20463;-76
2023/03/02 06:42:59;;;;;;;4.10;3.30;;;1.50;99.90;;;;;;4936129;29;20467;-75
2023/03/02 06:45:32;;;;;;;0.50;0.10;;;1.60;99.90;;;;;;4936220;29;20431;-74
2023/03/02 06:48:00;;;;;;;0.70;0.70;;;1.60;99.90;;;;;;4938916;29;20489;-75
2023/03/02 06:50:29;;;;;;;0.77;0.77;;;1.60;99.90;;;;;;4932739;29;20455;-76
2023/03/02 06:52:56;;;;;;;1.90;1.63;;;1.60;99.90;;;;;;4927396;29;20464;-75
2023/03/02 06:55:25;;;;;;;1.57;0.80;;;1.70;99.90;;;;;;4926137;29;20449;-75
2023/03/02 06:57:53;;;;;;;8.33;0.77;;;1.70;99.90;;;;;;4925499;29;20459;-74
2023/03/02 07:00:26;;;;;;;1.80;1.70;;;1.80;99.90;;;;;;4922985;29;20447;-75
2023/03/02 07:02:56;;;;;;;3.13;0.83;;;1.80;99.90;;;;;;4926158;29;20460;-76
2023/03/02 07:05:24;;;;;;;2.47;2.27;;;1.90;99.90;;;;;;4923572;29;20444;-77
2023/03/02 07:07:52;;;;;;;4.73;1.50;;;;;;;;;;4927221;29;20482;-77
2023/03/02 07:10:20;;;;;;;0.83;0.70;;;1.90;99.90;;;;;;4922137;29;20460;-77
2023/03/02 07:12:48;;;;;;;0.60;0.30;;;2.00;99.90;;;;;;4919244;29;20477;-76
2023/03/02 07:15:16;;;;;;;0.50;0.20;;;2.10;99.90;;;;;;4921860;29;20485;-73
2023/03/02 07:17:45;;;;;;;0.50;0.20;;;2.10;99.90;;;;;;4937654;29;20977;-73
2023/03/02 07:20:16;;;;;;;0.60;0.40;;;2.20;99.90;;;;;;4938069;29;20434;-72
2023/03/02 07:22:44;;;;;;;2.53;1.23;;;2.20;99.90;;;;;;4935246;29;20493;-76
2023/03/02 07:25:12;;;;;;;0.60;0.53;;;2.20;99.90;;;;;;4938378;29;20470;-75
2023/03/02 07:27:41;;;;;;;2.50;2.30;;;2.30;99.90;;;;;;4924514;28;20555;-76
2023/03/02 07:30:10;;;;;;;8.53;5.67;;;2.30;99.90;;;;;;4916478;29;20448;-75
2023/03/02 07:32:38;;;;;;;0.80;0.80;;;2.30;99.90;;;;;;4917082;29;20468;-75
2023/03/02 07:35:06;;;;;;;2.27;2.10;;;2.30;99.90;;;;;;4918380;29;20505;-74
2023/03/02 07:37:35;;;;;;;1.93;1.83;;;2.40;99.90;;;;;;4919489;29;20470;-75
2023/03/02 07:40:05;;;;;;;8.37;3.87;;;2.50;99.90;;;;;;4921276;29;20482;-76
2023/03/02 07:42:33;;;;;;;0.53;0.30;;;2.50;99.90;;;;;;4919540;29;20832;-77
2023/03/02 07:45:01;;;;;;;0.50;0.10;;;2.50;99.90;;;;;;4952709;29;20452;-75
2023/03/02 07:47:28;;;;;;;2.77;1.70;;;2.60;99.90;;;;;;4954791;28;20482;-75
2023/03/02 07:49:56;;;;;;;0.50;0.10;;;2.70;99.90;;;;;;4955723;28;20455;-75
2023/03/02 07:52:24;;;;;;;0.50;0.30;;;2.70;99.90;;;;;;4957595;28;20473;-73
2023/03/02 07:54:53;;;;;;;0.60;0.43;;;2.80;99.90;;;;;;4956133;28;20457;-74
2023/03/02 07:57:21;;;;;;;0.70;0.60;;;2.80;99.90;;;;;;4938944;29;20534;-77
2023/03/02 07:59:49;;;;;;;2.10;2.00;;;2.90;99.90;;;;;;4940855;29;20443;-77
2023/03/02 08:02:19;;;;;;;0.50;0.20;;;2.90;99.90;;;;;;4929416;29;20466;-75
2023/03/02 08:04:47;;;;;;;1.27;0.87;;;2.90;99.90;;;;;;4920448;29;20948;-75
2023/03/02 08:07:14;;;;;;;2.93;1.83;;;3.00;99.90;;;;;;4919830;29;20490;-74
2023/03/02 08:09:42;;;;;;;1.80;0.73;;;3.10;99.90;;;;;;4928689;29;20467;-77
2023/03/02 08:12:11;;;;;;;1.53;1.43;;;3.10;99.90;;;;;;4932246;29;21000;-77
2023/03/02 08:14:39;;;;;;;1.90;1.80;;;3.20;99.90;;;;;;4937306;29;20508;-76
2023/03/02 08:17:07;;;;;;;0.50;0.20;;;3.20;99.90;;;;;;4950964;28;20448;-75
2023/03/02 08:19:35;;;;;;;1.80;1.53;;;3.30;99.90;;;;;;4953385;28;21777;-76
2023/03/02 08:22:03;;;;;;;1.03;0.93;;;3.40;99.90;;;;;;4923748;29;20472;-76
2023/03/02 08:24:31;;;;;;;0.50;0.10;;;3.50;99.90;;;;;;4932089;28;20463;-75
2023/03/02 08:27:00;;;;;;;0.93;0.47;;;3.50;99.90;;;;;;4927444;29;20452;-77
2023/03/02 08:29:30;;;;;;;0.50;0.10;;;3.60;99.90;;;;;;4922189;29;20580;-78
2023/03/02 08:31:58;;;;;;;0.50;0.10;;;3.70;99.90;;;;;;4942905;29;20478;-78
2023/03/02 08:34:27;;;;;;;0.70;0.67;;;3.80;99.90;;;;;;4941198;29;20447;-76
2023/03/02 08:36:55;;;;;;;0.60;0.30;;;3.90;99.90;;;;;;4929756;29;20455;-77
2023/03/02 08:39:22;;;;;;;0.60;0.40;;;3.90;99.90;;;;;;4921161;29;20997;-77
2023/03/02 08:41:51;;;;;;;2.10;1.87;;;;;;;;;;4921011;29;20476;-77
2023/03/02 08:44:20;;;;;;;2.00;1.90;;;3.90;99.90;;;;;;4923006;29;20466;-75
2023/03/02 08:46:50;;;;;;;7.40;1.17;;;3.90;99.90;;;;;;4932376;29;20496;-76
2023/03/02 08:49:19;;;;;;;2.30;1.40;;;4.00;99.90;;;;;;4933906;29;20494;-75
2023/03/02 08:51:52;;;;;;;0.87;0.83;;;4.10;99.90;;;;;;4927746;29;20911;-76
2023/03/02 08:54:20;;;;;;;0.50;0.10;;;4.10;99.90;;;;;;4927558;29;20451;-76
2023/03/02 08:56:49;;;;;;;0.50;0.10;;;4.10;99.90;;;;;;4938360;29;20451;-77
2023/03/02 08:59:17;;;;;;;3.37;1.43;;;4.20;99.90;;;;;;4939674;29;20450;-76
2023/03/02 09:01:44;;;;;;;1.03;0.77;;;4.30;99.90;;;;;;4939388;29;20554;-76
2023/03/02 09:04:14;;;;;;;0.50;0.10;;;4.40;99.90;;;;;;4938380;29;20450;-75
2023/03/02 09:06:44;;;;;;;0.50;0.20;;;4.50;99.90;;;;;;4939159;29;20455;-76
2023/03/02 09:09:13;;;;;;;0.50;0.30;;;4.50;99.90;;;;;;4937752;29;20498;-76
2023/03/02 09:11:42;;;;;;;2.10;1.13;;;4.60;99.90;;;;;;4937277;29;20986;-74
2023/03/02 09:14:10;;;;;;;0.50;0.20;;;4.60;99.90;;;;;;4930089;29;20470;-77
2023/03/02 09:16:38;;;;;;;0.50;0.20;;;4.80;99.90;;;;;;4947577;28;20583;-75
2023/03/02 09:19:06;;;;;;;0.50;0.10;;;4.80;99.90;;;;;;4925565;29;20452;-75
2023/03/02 09:21:36;;;;;;;0.80;0.70;;;5.10;99.90;;;;;;4920029;29;20464;-77
2023/03/02 09:24:04;;;;;;;0.50;0.20;;;5.10;99.90;;;;;;4952319;29;20450;-76
2023/03/02 09:26:32;;;;;;;0.80;0.20;;;5.20;99.90;;;;;;4944840;28;20459;-76
2023/03/02 09:29:00;;;;;;;0.87;0.77;;;5.30;99.90;;;;;;4919132;29;20921;-76
2023/03/02 09:31:28;;;;;;;5.17;1.30;;;5.40;99.90;;;;;;4934040;29;20486;-75
2023/03/02 09:33:57;;;;;;;8.10;7.53;;;5.40;99.90;;;;;;4939328;29;20480;-76
2023/03/02 09:36:26;;;;;;;0.50;0.20;;;5.50;99.90;;;;;;4957781;29;20451;-75
2023/03/02 09:38:55;;;;;;;3.60;3.40;;;5.50;99.90;;;;;;4963935;28;20454;-76
2023/03/02 09:41:52;;;;;;;0.70;0.43;;;5.70;99.90;;;;;;4959570;28;20470;-75
2023/03/02 09:44:51;;;;;;;1.07;0.83;;;5.70;99.90;;;;;;4932113;29;20466;-78
2023/03/02 09:47:27;;;;;;;5.77;1.50;;;5.80;99.90;;;;;;4948604;29;20504;-75
2023/03/02 09:50:15;;;;;;;3.47;3.27;;;5.90;99.90;;;;;;4958261;28;20488;-78
2023/03/02 09:52:52;;;;;;;0.50;0.10;;;5.90;99.90;;;;;;4957584;28;20473;-77
2023/03/02 09:55:25;;;;;;;1.83;1.63;;;6.00;99.90;;;;;;4945537;28;20466;-78
2023/03/02 09:57:54;;;;;;;1.50;1.40;;;6.00;99.90;;;;;;4923572;28;20463;-76
2023/03/02 10:00:29;;;;;;;0.90;0.43;;;6.10;99.90;;;;;;4918816;29;20460;-75
2023/03/02 10:03:01;;;;;;;10.33;3.37;;;6.10;99.90;;;;;;4918136;29;20447;-75
2023/03/02 10:05:45;;;;;;;0.50;0.20;;;6.20;99.90;;;;;;4917715;29;20446;-76
2023/03/02 10:08:15;;;;;;;2.47;1.90;;;6.40;99.90;;;;;;4931109;29;20443;-75
2023/03/02 10:10:48;;;;;;;2.00;1.90;;;6.50;99.90;;;;;;4940599;28;20467;-77
2023/03/02 10:13:22;;;;;;;3.80;1.37;;;6.50;99.90;;;;;;4949783;28;20458;-77
2023/03/02 10:16:06;;;;;;;0.50;0.10;;;6.50;99.90;;;;;;4958497;28;20465;-76
2023/03/02 10:18:39;;;;;;;0.60;0.27;;;6.60;99.90;;;;;;4944851;28;20462;-76
2023/03/02 10:21:14;;;;;;;6.03;1.90;;;6.90;99.90;;;;;;4952110;29;20499;-77
2023/03/02 10:23:49;;;;;;;0.67;0.30;;;6.90;99.90;;;;;;4941767;29;20542;-76
2023/03/02 10:26:27;;;;;;;0.50;0.10;;;7.00;99.90;;;;;;4939335;29;20447;-76
2023/03/02 10:29:03;;;;;;;0.97;0.97;;;7.00;99.90;;;;;;4938268;29;20486;-77
2023/03/02 10:31:33;;;;;;;13.13;4.17;;;7.10;99.90;;;;;;4939323;29;20475;-77
2023/03/02 10:34:01;;;;;;;0.90;0.73;;;7.20;99.90;;;;;;4936625;29;20448;-76
2023/03/02 10:36:31;;;;;;;1.70;1.03;;;7.20;99.90;;;;;;4918915;29;20452;-77
2023/03/02 10:39:00;;;;;;;0.50;0.10;;;7.30;99.90;;;;;;4922035;29;20445;-76
2023/03/02 10:41:34;;;;;;;0.90;0.50;;;7.50;99.90;;;;;;4943229;29;20497;-77
2023/03/02 10:44:06;;;;;;;0.97;0.47;;;7.50;99.90;;;;;;4933535;29;20497;-77
2023/03/02 10:46:41;;;;;;;0.50;0.20;;;7.60;99.90;;;;;;4941824;29;20448;-77
2023/03/02 10:49:26;;;;;;;0.70;0.40;;;7.70;99.90;;;;;;4943397;29;20478;-77
2023/03/02 10:52:01;;;;;;;1.67;1.57;;;7.80;99.90;;;;;;4940380;29;20463;-76
2023/03/02 10:54:31;;;;;;;0.50;0.20;;;7.90;99.90;;;;;;4956187;29;20536;-76
2023/03/02 10:57:01;;;;;;;2.83;0.63;;;7.90;99.90;;;;;;4937470;29;20482;-77
2023/03/02 10:59:43;;;;;;;1.73;1.13;;;8.00;99.90;;;;;;4931570;29;20458;-77
2023/03/02 11:02:21;;;;;;;0.60;0.20;;;8.20;99.90;;;;;;4936627;29;20476;-76
2023/03/02 11:04:52;;;;;;;8.13;3.40;;;8.30;99.90;;;;;;4931534;29;20504;-76
2023/03/02 11:07:26;;;;;;;0.60;0.20;;;8.40;99.90;;;;;;4917704;29;20452;-77
2023/03/02 11:09:58;;;;;;;1.90;1.80;;;8.50;99.90;;;;;;4921350;29;20536;-76
2023/03/02 11:12:29;;;;;;;6.83;3.27;;;8.50;99.90;;;;;;4929986;29;20472;-76
2023/03/02 11:15:19;;;;;;;0.60;0.50;;;8.40;99.90;;;;;;4936609;29;20871;-76
2023/03/02 11:17:50;;;;;;;1.10;0.83;;;8.40;99.90;;;;;;4937870;29;20459;-77
2023/03/02 11:20:24;;;;;;;3.70;1.90;;;8.40;99.90;;;;;;4937082;29;20451;-75
2023/03/02 11:23:01;;;;;;;8.70;4.83;;;8.50;99.90;;;;;;4950954;29;20483;-74
2023/03/02 11:25:34;;;;;;;2.10;2.00;;;8.50;99.90;;;;;;4965576;28;20444;-75
2023/03/02 11:28:09;;;;;;;1.27;1.17;;;8.70;99.90;;;;;;4960719;29;20447;-74
2023/03/02 11:30:44;;;;;;;3.50;0.83;;;8.80;99.90;;;;;;4960878;29;20550;-76
2023/03/02 11:33:18;;;;;;;0.83;0.83;;;8.80;99.90;;;;;;4943181;29;20451;-75
2023/03/02 11:35:51;;;;;;;2.10;2.00;;;8.90;99.90;;;;;;4941895;29;20450;-75
2023/03/02 11:38:24;;;;;;;0.70;0.60;;;8.80;99.90;;;;;;4941049;29;20526;-76
2023/03/02 11:40:56;;;;;;;5.70;4.00;;;9.00;99.90;;;;;;4923021;29;20476;-78
2023/03/02 11:43:25;;;;;;;0.57;0.10;;;9.00;99.90;;;;;;4921394;29;20464;-76
2023/03/02 11:45:58;;;;;;;3.73;1.60;;;9.10;99.90;;;;;;4921404;29;20454;-76
2023/03/02 11:48:32;;;;;;;0.50;0.10;;;9.20;99.90;;;;;;4921971;29;20464;-76
2023/03/02 11:51:02;;;;;;;5.53;4.27;;;9.30;99.90;;;;;;4935401;29;20483;-77
2023/03/02 11:53:33;;;;;;;0.60;0.30;;;9.30;99.90;;;;;;4940746;28;21191;-75
2023/03/02 11:56:01;;;;;;;1.07;0.80;;;9.30;99.90;;;;;;4940717;29;20447;-78
2023/03/02 11:58:32;;;;;;;1.70;1.60;;;10.30;99.90;;;;;;4928749;29;21046;-77
2023/03/02 12:01:01;;;;;;;0.90;0.60;;;9.40;99.90;;;;;;4921285;29;20480;-75
2023/03/02 12:03:41;;;;;;;1.23;1.13;;;9.40;99.90;;;;;;4922628;29;20437;-77
2023/03/02 12:06:28;;;;;;;2.33;1.40;;;9.50;99.90;;;;;;4921083;29;20828;-76
2023/03/02 12:09:22;;;;;;;2.20;1.17;;;9.50;99.90;;;;;;4935051;29;20471;-77
2023/03/02 12:11:55;;;;;;;2.40;0.93;;;9.60;99.90;;;;;;4929720;28;20517;-76
2023/03/02 12:14:29;;;;;;;6.83;4.17;;;9.70;99.90;;;;;;4940788;29;20452;-77
2023/03/02 12:17:06;;;;;;;1.03;0.30;;;9.80;99.90;;;;;;4939015;29;20452;-76
2023/03/02 12:19:43;;;;;;;0.70;0.50;;;9.90;99.90;;;;;;4940313;29;20804;-75
2023/03/02 12:22:14;;;;;;;0.60;0.33;;;10.00;99.90;;;;;;4943075;29;20507;-77
2023/03/02 12:24:44;;;;;;;0.80;0.20;;;10.00;99.90;;;;;;4931309;29;20821;-77
2023/03/02 12:27:27;;;;;;;0.90;0.70;;;10.00;99.90;;;;;;4923271;29;20449;-76
2023/03/02 12:30:11;;;;;;;0.60;0.30;;;10.10;99.90;;;;;;4924528;29;20494;-77
2023/03/02 12:32:39;;;;;;;11.13;10.20;;;10.20;99.90;;;;;;4925482;29;20476;-76
2023/03/02 12:35:12;;;;;;;1.60;1.50;;;10.20;99.90;;;;;;4925206;29;20465;-76
2023/03/02 12:37:46;;;;;;;0.80;0.77;;;10.30;99.90;;;;;;4923825;29;20954;-76
2023/03/02 12:40:27;;;;;;;0.60;0.27;;;10.30;99.90;;;;;;4922225;29;20448;-76
2023/03/02 12:43:18;;;;;;;0.80;0.63;;;12.50;99.90;;;;;;4948392;29;20545;-76
2023/03/02 12:46:19;;;;;;;0.70;0.30;;;10.40;99.90;;;;;;4931619;29;20459;-76
2023/03/02 12:48:56;;;;;;;1.17;1.03;;;10.40;99.90;;;;;;4950685;29;20452;-76
2023/03/02 12:51:26;;;;;;;1.40;1.30;;;10.50;99.90;;;;;;4971930;28;20480;-77
2023/03/02 12:54:02;;;;;;;1.80;1.67;;;10.50;99.90;;;;;;4950484;29;20527;-77
2023/03/02 12:56:30;;;;;;;0.90;0.43;;;10.50;99.90;;;;;;4966910;28;20462;-76
2023/03/02 12:58:58;;;;;;;0.80;0.50;;;10.60;99.90;;;;;;4966983;28;20443;-77
2023/03/02 13:01:29;;;;;;;2.40;0.30;;;10.60;99.90;;;;;;4969660;28;20469;-77
2023/03/02 13:03:57;;;;;;;1.57;1.47;;;10.60;99.90;;;;;;4973277;28;20466;-77
2023/03/02 13:06:30;;;;;;;0.70;0.30;;;10.70;99.90;;;;;;4940545;28;20464;-76
2023/03/02 13:08:59;;;;;;;1.07;0.50;;;10.70;99.90;;;;;;4932461;29;20533;-76
2023/03/02 13:11:32;;;;;;;2.63;2.43;;;10.80;99.90;;;;;;4928494;29;20498;-76
2023/03/02 13:14:02;;;;;;;2.80;1.33;;;10.80;99.90;;;;;;4920769;29;20458;-78
2023/03/02 13:16:35;;;;;;;0.60;0.20;;;10.80;99.90;;;;;;4922223;29;20450;-77
2023/03/02 13:19:13;;;;;;;2.43;1.63;;;10.80;99.90;;;;;;4922490;29;20449;-77
2023/03/02 13:21:42;;;;;;;1.80;1.67;;;10.80;99.90;;;;;;4921991;29;20482;-78
2023/03/02 13:24:33;;;;;;;3.67;1.50;;;10.80;99.90;;;;;;4961993;29;20855;-77
2023/03/02 13:27:06;;;;;;;2.00;1.03;;;10.90;99.90;;;;;;4958416;28;20456;-77
2023/03/02 13:29:34;;;;;;;6.10;2.43;;;11.00;99.90;;;;;;4943725;28;20465;-77
2023/03/02 13:32:17;;;;;;;2.00;0.80;;;10.90;99.90;;;;;;4949560;29;20579;-76
2023/03/02 13:34:48;;;;;;;2.87;2.63;;;10.90;99.90;;;;;;4942114;29;20541;-77
2023/03/02 13:37:21;;;;;;;1.67;1.57;;;11.00;99.90;;;;;;4923689;29;20490;-76
2023/03/02 13:39:57;;;;;;;14.10;4.00;;;11.00;99.90;;;;;;4919107;29;20439;-76
2023/03/02 13:42:27;;;;;;;2.97;1.10;;;11.10;99.90;;;;;;4919761;29;20476;-76
2023/03/02 13:44:55;;;;;;;1.97;1.87;;;11.10;99.90;;;;;;4920217;29;20444;-76
2023/03/02 13:47:25;;;;;;;1.93;0.70;;;11.20;99.90;;;;;;4918771;29;20445;-77
2023/03/02 13:49:52;;;;;;;1.23;0.77;;;11.30;99.90;;;;;;4918899;29;20449;-77
2023/03/02 13:52:27;;;;;;;2.30;2.10;;;11.30;99.90;;;;;;4939139;29;21017;-76
2023/03/02 13:54:55;;;;;;;0.70;0.67;;;11.30;99.90;;;;;;4935627;29;20483;-77
2023/03/02 13:57:28;;;;;;;2.50;2.07;;;11.40;99.90;;;;;;4937023;29;20467;-77
2023/03/02 13:59:58;;;;;;;2.90;2.20;;;11.40;99.90;;;;;;4937962;29;20475;-75
2023/03/02 14:02:29;;;;;;;1.47;0.83;;;11.50;99.90;;;;;;4934965;29;21037;-77
2023/03/02 14:04:57;;;;;;;5.17;1.70;;;11.50;99.90;;;;;;4944441;29;20956;-76
2023/03/02 14:07:25;;;;;;;1.33;0.97;;;11.50;99.90;;;;;;4954096;29;21003;-76
2023/03/02 14:09:53;;;;;;;1.63;1.53;;;11.50;99.90;;;;;;4939183;28;20449;-77
2023/03/02 14:12:26;;;;;;;1.87;1.43;;;11.60;99.90;;;;;;4938817;29;20488;-77
2023/03/02 14:14:57;;;;;;;0.60;0.30;;;11.60;99.90;;;;;;4938023;29;20443;-76
2023/03/02 14:17:27;;;;;;;12.87;2.30;;;11.70;99.90;;;;;;4931342;29;20465;-75
2023/03/02 14:19:55;;;;;;;0.60;0.30;;;11.70;99.90;;;;;;4919201;29;20486;-76
2023/03/02 14:22:26;;;;;;;0.60;0.10;;;11.70;99.90;;;;;;4927728;29;20463;-75
2023/03/02 14:24:53;;;;;;;1.63;1.33;;;11.70;99.90;;;;;;4956730;28;20453;-77
2023/03/02 14:27:25;;;;;;;2.50;1.80;;;11.80;99.90;;;;;;4957874;28;20800;-76
2023/03/02 14:29:53;;;;;;;0.60;0.20;;;11.70;99.90;;;;;;4956928;28;20451;-77
2023/03/02 14:32:21;;;;;;;0.60;0.23;;;11.60;99.90;;;;;;4956772;28;20496;-77
2023/03/02 14:34:50;;;;;;;13.73;9.30;;;11.70;99.90;;;;;;4923970;28;20552;-77
2023/03/02 14:37:24;;;;;;;1.40;1.30;;;11.70;99.90;;;;;;4917766;29;20457;-76
2023/03/02 14:39:53;;;;;;;3.50;3.20;;;11.80;99.90;;;;;;4919059;29;20478;-77
2023/03/02 14:42:22;;;;;;;3.03;1.40;;;11.80;99.90;;;;;;4938602;29;20608;-76
2023/03/02 14:44:51;;;;;;;1.07;0.80;;;11.80;99.90;;;;;;4948291;28;20482;-77
2023/03/02 14:47:20;;;;;;;2.90;2.80;;;11.70;99.90;;;;;;4958475;28;20487;-77
2023/03/02 14:49:50;;;;;;;2.00;0.93;;;;;;;;;;4929823;28;20501;-76
2023/03/02 14:52:23;;;;;;;1.53;0.60;;;11.80;99.90;;;;;;4917498;29;20486;-77
2023/03/02 14:54:54;;;;;;;8.90;4.77;;;11.90;99.90;;;;;;4917299;29;20477;-77
2023/03/02 14:57:24;;;;;;;1.93;1.73;;;11.90;99.90;;;;;;4918359;29;20457;-77
2023/03/02 14:59:53;;;;;;;1.23;0.87;;;;;;;;;;4917535;29;20451;-77
2023/03/02 15:02:24;;;;;;;2.63;2.43;;;11.90;99.90;;;;;;4924300;29;20568;-78
2023/03/02 15:04:55;;;;;;;2.13;2.03;;;11.90;99.90;;;;;;4917933;29;20454;-76
2023/03/02 15:07:26;;;;;;;2.00;1.13;;;11.90;99.90;;;;;;4927447;29;20462;-77
2023/03/02 15:09:54;;;;;;;1.57;1.47;;;11.90;99.90;;;;;;4938071;29;20451;-76
2023/03/02 15:12:22;;;;;;;1.37;0.60;;;11.90;99.90;;;;;;4937038;29;20969;-77
2023/03/02 15:14:50;;;;;;;2.73;1.83;;;11.90;99.90;;;;;;4937188;29;20453;-76
2023/03/02 15:17:18;;;;;;;6.80;3.27;;;12.00;99.90;;;;;;4936893;29;20986;-77
2023/03/02 15:19:46;;;;;;;0.60;0.10;;;11.90;99.90;;;;;;4947074;29;20460;-79
2023/03/02 15:22:16;;;;;;;6.57;1.80;;;11.90;99.90;;;;;;4954001;28;20516;-76
2023/03/02 15:24:44;;;;;;;0.60;0.10;;;11.90;99.90;;;;;;4933993;29;20449;-78
2023/03/02 15:27:11;;;;;;;3.93;3.37;;;11.80;99.90;;;;;;4937980;29;20457;-78
2023/03/02 15:29:43;;;;;;;86.87;9.80;;;11.30;99.90;;;;;;4937064;29;20461;-76
2023/03/02 15:32:11;;;;;;;1.50;1.40;;;;;;;;;;4937276;29;20503;-77
2023/03/02 15:34:39;;;;;;;0.70;0.43;;;11.90;99.90;;;;;;4937034;29;20460;-76
2023/03/02 15:37:07;;;;;;;0.80;0.43;;;11.90;99.90;;;;;;4948537;29;20433;-76
2023/03/02 15:39:37;;;;;;;0.93;0.40;;;12.00;99.90;;;;;;4953264;29;20484;-77
2023/03/02 15:42:05;;;;;;;0.60;0.20;;;12.00;99.90;;;;;;4955661;29;20460;-77
2023/03/02 15:44:33;;;;;;;2.10;1.30;;;12.10;99.90;;;;;;4924047;29;20458;-77
2023/03/02 15:47:01;;;;;;;2.37;2.20;;;12.10;99.90;;;;;;4919880;29;20510;-77
2023/03/02 15:49:31;;;;;;;1.67;1.23;;;12.10;99.90;;;;;;4943318;29;20456;-76
2023/03/02 15:51:59;;;;;;;1.60;1.50;;;12.10;99.90;;;;;;4953270;28;20780;-76
2023/03/02 15:54:28;;;;;;;1.20;0.97;;;12.10;99.90;;;;;;4929314;29;20437;-77
2023/03/02 15:56:57;;;;;;;0.60;0.30;;;12.20;99.90;;;;;;4936121;29;20452;-76
2023/03/02 15:59:27;;;;;;;2.20;0.97;;;12.30;99.90;;;;;;4933744;28;20457;-77
2023/03/02 16:01:58;;;;;;;1.10;0.97;;;12.50;99.90;;;;;;4919918;29;20882;-77
2023/03/02 16:04:27;;;;;;;0.80;0.43;;;12.80;99.90;;;;;;4918096;29;20994;-77
2023/03/02 16:06:55;;;;;;;0.80;0.60;;;12.70;99.90;;;;;;4918454;29;20454;-77
2023/03/02 16:09:23;;;;;;;2.40;1.70;;;13.00;99.90;;;;;;4944265;29;20457;-76
2023/03/02 16:11:51;;;;;;;0.70;0.50;;;13.50;99.90;;;;;;4949210;28;20482;-77
2023/03/02 16:14:21;;;;;;;0.90;0.73;;;14.00;99.90;;;;;;4940950;29;20454;-76
2023/03/02 16:16:49;;;;;;;1.53;0.77;;;14.70;99.90;;;;;;4931575;29;20459;-77
2023/03/02 16:19:18;;;;;;;2.40;0.87;;;15.20;99.90;;;;;;4948848;29;20459;-76
2023/03/02 16:21:47;;;;;;;0.87;0.87;;;15.60;99.90;;;;;;4943098;28;20461;-76
2023/03/02 16:24:15;;;;;;;0.97;0.67;;;15.60;99.90;;;;;;4932170;29;20450;-78
2023/03/02 16:26:44;;;;;;;0.60;0.30;;;15.50;99.90;;;;;;4921343;29;20463;-77
2023/03/02 16:29:13;;;;;;;0.67;0.33;;;15.20;99.90;;;;;;4922677;29;20463;-76
2023/03/02 16:31:45;;;;;;;0.60;0.20;;;15.00;99.90;;;;;;4945367;29;20461;-77
2023/03/02 16:34:13;;;;;;;3.37;0.90;;;14.70;99.90;;;;;;4946762;29;20539;-76
2023/03/02 16:36:41;;;;;;;1.60;1.50;;;14.70;99.90;;;;;;4933110;29;20538;-77
2023/03/02 16:39:11;;;;;;;0.90;0.80;;;14.40;99.90;;;;;;4923958;29;20468;-78
2023/03/02 16:41:41;;;;;;;0.60;0.20;;;14.00;99.90;;;;;;4938361;29;20470;-77
2023/03/02 16:44:11;;;;;;;0.60;0.17;;;13.90;99.90;;;;;;4931077;29;20451;-78
2023/03/02 16:46:40;;;;;;;2.20;1.70;;;13.60;99.90;;;;;;4937912;29;20457;-77
2023/03/02 16:49:10;;;;;;;0.60;0.20;;;13.10;99.90;;;;;;4931409;29;20444;-75
2023/03/02 16:51:38;;;;;;;0.60;0.10;;;12.70;99.90;;;;;;4938652;29;20473;-78
2023/03/02 16:54:06;;;;;;;0.60;0.10;;;12.70;99.90;;;;;;4938772;29;20457;-77
2023/03/02 16:56:34;;;;;;;1.20;0.83;;;12.20;99.90;;;;;;4929043;29;20450;-77
2023/03/02 16:59:02;;;;;;;0.60;0.10;;;12.20;99.90;;;;;;4920808;29;20549;-77
2023/03/02 17:01:30;;;;;;;0.60;0.20;;;11.70;99.90;;;;;;4919274;29;20478;-75
2023/03/02 17:03:57;;;;;;;1.97;0.40;;;11.60;99.90;;;;;;4920130;29;20487;-76
2023/03/02 17:06:27;;;;;;;5.43;3.00;;;11.20;99.90;;;;;;4921960;29;20473;-76
2023/03/02 17:08:55;;;;;;;0.60;0.30;;;11.20;99.90;;;;;;4919133;29;20463;-77
2023/03/02 17:11:22;;;;;;;0.60;0.10;;;10.90;99.90;;;;;;4919915;29;20717;-77
2023/03/02 17:13:51;;;;;;;0.70;0.53;;;;;;;;;;4931732;29;20485;-77